Terminal Aerodrome Forecast
Issued by NWS

Home | Current Version | Previous Version | Graphics & Text | Print | Product List | Glossary On
Versions: 1 2 3 4 5 6 7 8 9 10 11 12 13 14 15 16 17
989
FTUS43 KGRB 232333
TAFAUW
TAF
KAUW 232333Z 2400/2424 19005KT P6SM SKC
      TEMPO 2401/2403 BKN070
     FM240300 19009G15KT P6SM BKN090 WS015/24040KT
     FM241500 21011G20KT P6SM SCT035 BKN100
     FM242000 26010G17KT P6SM VCSH SCT020 BKN035
      TEMPO 2422/2424 -SHRA BKN020=

USA.gov is the U.S. government's official web portal to all federal, state and local government web resources and services.